Time;durP1;ratioP1;P1;durP2;ratioP2;P2;SDS_P1;SDS_P2;PMS_P1;PMS_P2;Temp;Humidity;BMP_temperature;BMP_pressure;BME280_temperature;BME280_humidity;BME280_pressure;Samples;Min_cycle;Max_cycle;Signal;HPM_P1;HPM_P2
2022/09/25 00:00:55;;;;;;;;;;;;;;;;;;5176815;27;2160;-47
2022/09/25 00:03:24;;;;;;;;;;;;;;;;;;5176904;27;2030;-49
2022/09/25 00:05:52;;;;;;;;;;;;;;;;;;5177028;27;1983;-48
2022/09/25 00:08:19;;;;;;;;;;;;;;;;;;5176485;27;1829;-50
2022/09/25 00:10:47;;;;;;;;;;;;;;;;;;5176352;27;2253;-52
2022/09/25 00:13:15;;;;;;;;;;;;;;;;;;5176349;27;1271;-49
2022/09/25 00:15:53;;;;;;;;;;;;;;;;;;5176507;27;1914;-50
2022/09/25 00:21:10;;;;;;;;;;;;;;;;;;5176285;27;1957;-47
2022/09/25 00:23:40;;;;;;;;;;;;;;;;;;5176590;27;1822;-53
2022/09/25 00:26:07;;;;;;;;;;;;;;;;;;5176510;27;1689;-50
2022/09/25 00:28:35;;;;;;;;;;;;;;;;;;5176124;27;1860;-50
2022/09/25 00:31:04;;;;;;;;;;;;;;;;;;5176314;27;2303;-50
2022/09/25 00:33:32;;;;;;;;;;;;;;;;;;5176196;27;2000;-51
2022/09/25 00:36:07;;;;;;;;;;;;;;;;;;5176182;27;1677;-47
2022/09/25 00:38:35;;;;;;;;;;;;;;;;;;5175739;27;2294;-49
2022/09/25 00:41:04;;;;;;;;;;;;;;;;;;5176127;27;1394;-46
2022/09/25 00:43:37;;;;;;;;;;;;;;;;;;5176156;27;2121;-51
2022/09/25 00:46:06;;;;;;;;;;;;;;;;;;5166527;27;1841;-50
2022/09/25 00:48:34;;;;;;;;;;;;;;;;;;5154430;27;1966;-46
2022/09/25 00:51:01;;;;;;;;;;;;;;;;;;5136185;27;1906;-50
2022/09/25 00:53:30;;;;;;;;;;;;;;;;;;5155118;27;1801;-48
2022/09/25 00:55:58;;;;;;;;;;;;;;;;;;5154991;27;1941;-47
2022/09/25 00:58:26;;;;;;;;;;;;;;;;;;5154847;27;1511;-50
2022/09/25 01:00:54;;;;;;;;;;;;;;;;;;5154583;27;2144;-50
2022/09/25 01:03:21;;;;;;;;;;;;;;;;;;5155220;27;1468;-47
2022/09/25 01:05:49;;;;;;;;;;;;;;;;;;5154937;27;1935;-50
2022/09/25 01:08:18;;;;;;;;;;;;;;;;;;5154968;27;1972;-51
2022/09/25 01:10:45;;;;;;;;;;;;;;;;;;5154873;27;2094;-52
2022/09/25 01:13:13;;;;;;;;;;;;;;;;;;5154719;27;1921;-50
2022/09/25 01:16:07;;;;;;;;;;;;;;;;;;5154814;27;2170;-48
2022/09/25 01:19:00;;;;;;;;;;;;;;;;;;5143843;27;2063;-46
2022/09/25 01:21:32;;;;;;;;;;;;;;;;;;5116098;27;1924;-50
2022/09/25 01:24:25;;;;;;;;;;;;;;;;;;5154857;27;2092;-47
2022/09/25 01:26:52;;;;;;;;;;;;;;;;;;5122121;27;1766;-48
2022/09/25 01:29:46;;;;;;;;;;;;;;;;;;5176005;27;2276;-49
2022/09/25 01:32:19;;;;;;;;;;;;;;;;;;5171527;27;1905;-53
2022/09/25 01:34:55;;;;;;;;;;;;;;;;;;5175499;27;2061;-50
2022/09/25 01:37:28;;;;;;;;;;;;;;;;;;5175554;27;1833;-49
2022/09/25 01:40:01;;;;;;;;;;;;;;;;;;5175289;27;2147;-49
2022/09/25 01:42:32;;;;;;;;;;;;;;;;;;5140015;27;1972;-47
2022/09/25 01:45:03;;;;;;;;;;;;;;;;;;5175681;27;2193;-47
2022/09/25 01:47:33;;;;;;;;;;;;;;;;;;5175634;27;1847;-50
2022/09/25 01:50:03;;;;;;;;;;;;;;;;;;5175578;27;1482;-45
2022/09/25 01:52:38;;;;;;;;;;;;;;;;;;5175286;27;1905;-51
2022/09/25 01:55:08;;;;;;;;;;;;;;;;;;5175393;27;1937;-52
2022/09/25 01:57:41;;;;;;;;;;;;;;;;;;5175355;27;1983;-44
2022/09/25 02:00:13;;;;;;;;;;;;;;;;;;5175285;27;1451;-45
2022/09/25 02:02:45;;;;;;;;;;;;;;;;;;5160430;27;1985;-47
2022/09/25 02:05:19;;;;;;;;;;;;;;;;;;5179190;27;1814;-48
2022/09/25 02:08:06;;;;;;;;;;;;;;;;;;5178937;27;1612;-49
2022/09/25 02:10:40;;;;;;;;;;;;;;;;;;5178801;27;2393;-46
2022/09/25 02:13:09;;;;;;;;;;;;;;;;;;5178980;27;1917;-50
2022/09/25 02:15:39;;;;;;;;;;;;;;;;;;5178711;27;2180;-47
2022/09/25 02:20:58;;;;;;;;;;;;;;;;;;5160126;27;1693;-41
2022/09/25 02:23:44;;;;;;;;;;;;;;;;;;5178628;27;1869;-45
2022/09/25 02:26:15;;;;;;;;;;;;;;;;;;5178505;27;1698;-48
2022/09/25 02:28:42;;;;;;;;;;;;;;;;;;5157725;27;2175;-45
2022/09/25 02:31:11;;;;;;;;;;;;;;;;;;5157749;27;2107;-44
2022/09/25 02:33:38;;;;;;;;;;;;;;;;;;5157859;27;1910;-48
2022/09/25 02:36:05;;;;;;;;;;;;;;;;;;5172496;27;1848;-43
2022/09/25 02:38:34;;;;;;;;;;;;;;;;;;5178290;27;2264;-45
2022/09/25 02:41:08;;;;;;;;;;;;;;;;;;5178055;27;1637;-44
2022/09/25 02:43:45;;;;;;;;;;;;;;;;;;5178334;27;1821;-45
2022/09/25 02:46:18;;;;;;;;;;;;;;;;;;5178394;27;2125;-46
2022/09/25 02:48:51;;;;;;;;;;;;;;;;;;5178136;27;1856;-50
2022/09/25 02:51:24;;;;;;;;;;;;;;;;;;5178095;27;1967;-47
2022/09/25 02:54:00;;;;;;;;;;;;;;;;;;5178227;27;2520;-51
2022/09/25 02:56:30;;;;;;;;;;;;;;;;;;5178021;27;1768;-47
2022/09/25 02:59:04;;;;;;;;;;;;;;;;;;5177884;27;1775;-47
2022/09/25 03:01:34;;;;;;;;;;;;;;;;;;5177900;27;2006;-46
2022/09/25 03:04:03;;;;;;;;;;;;;;;;;;5177787;27;1854;-48
2022/09/25 03:06:31;;;;;;;;;;;;;;;;;;5177859;27;1643;-48
2022/09/25 03:08:59;;;;;;;;;;;;;;;;;;5177964;27;1665;-46
2022/09/25 03:11:27;;;;;;;;;;;;;;;;;;5177344;27;2028;-47
2022/09/25 03:14:04;;;;;;;;;;;;;;;;;;5178016;27;2058;-47
2022/09/25 03:16:35;;;;;;;;;;;;;;;;;;5177736;27;2168;-46
2022/09/25 03:19:02;;;;;;;;;;;;;;;;;;5177597;27;2100;-48
2022/09/25 03:21:30;;;;;;;;;;;;;;;;;;5177495;27;1921;-45
2022/09/25 03:23:58;;;;;;;;;;;;;;;;;;5177635;27;1712;-50
2022/09/25 03:26:26;;;;;;;;;;;;;;;;;;5166956;27;2035;-46
2022/09/25 03:28:53;;;;;;;;;;;;;;;;;;5177432;27;2160;-47
2022/09/25 03:31:20;;;;;;;;;;;;;;;;;;5177801;27;1896;-50
2022/09/25 03:33:48;;;;;;;;;;;;;;;;;;5177235;27;2154;-47
2022/09/25 03:36:17;;;;;;;;;;;;;;;;;;5158725;27;1972;-49
2022/09/25 03:38:47;;;;;;;;;;;;;;;;;;5177185;27;2072;-47
2022/09/25 03:41:16;;;;;;;;;;;;;;;;;;5176892;27;1756;-48
2022/09/25 03:43:44;;;;;;;;;;;;;;;;;;5177218;27;2067;-47
2022/09/25 03:46:12;;;;;;;;;;;;;;;;;;5177125;27;2094;-48
2022/09/25 03:48:40;;;;;;;;;;;;;;;;;;5158341;27;2053;-48
2022/09/25 03:51:08;;;;;;;;;;;;;;;;;;5177220;27;1966;-49
2022/09/25 03:53:35;;;;;;;;;;;;;;;;;;5177006;27;1997;-48
2022/09/25 03:56:04;;;;;;;;;;;;;;;;;;5176858;27;1600;-50
2022/09/25 03:58:31;;;;;;;;;;;;;;;;;;5176863;27;2130;-51
2022/09/25 04:01:00;;;;;;;;;;;;;;;;;;5176855;27;1818;-50
2022/09/25 04:03:28;;;;;;;;;;;;;;;;;;5176917;27;2169;-50
2022/09/25 04:05:56;;;;;;;;;;;;;;;;;;5176848;27;2244;-43
2022/09/25 04:08:25;;;;;;;;;;;;;;;;;;5176867;27;1939;-47
2022/09/25 04:10:55;;;;;;;;;;;;;;;;;;5176759;27;2009;-47
2022/09/25 04:13:22;;;;;;;;;;;;;;;;;;5176455;27;2039;-46
2022/09/25 04:15:50;;;;;;;;;;;;;;;;;;5176522;27;2075;-43
2022/09/25 04:18:17;;;;;;;;;;;;;;;;;;5176074;27;1821;-49
2022/09/25 04:20:45;;;;;;;;;;;;;;;;;;5176889;27;1657;-43
2022/09/25 04:23:12;;;;;;;;;;;;;;;;;;5175864;27;1648;-46
2022/09/25 04:25:40;;;;;;;;;;;;;;;;;;5176204;27;2090;-46
2022/09/25 04:28:08;;;;;;;;;;;;;;;;;;5175892;27;1745;-41
2022/09/25 04:30:36;;;;;;;;;;;;;;;;;;5163827;27;2026;-48
2022/09/25 04:36:14;;;;;;;;;;;;;;;;;;5175955;27;1578;-47
2022/09/25 04:38:51;;;;;;;;;;;;;;;;;;5176265;27;1565;-44
2022/09/25 04:41:26;;;;;;;;;;;;;;;;;;5175883;27;1829;-45
2022/09/25 04:43:53;;;;;;;;;;;;;;;;;;5176171;27;2053;-44
2022/09/25 04:46:21;;;;;;;;;;;;;;;;;;5176328;27;1789;-41
2022/09/25 04:48:49;;;;;;;;;;;;;;;;;;5175821;27;2393;-50
2022/09/25 04:51:16;;;;;;;;;;;;;;;;;;5176111;27;1983;-46
2022/09/25 04:53:43;;;;;;;;;;;;;;;;;;5175761;27;1976;-51
2022/09/25 04:56:13;;;;;;;;;;;;;;;;;;5176042;27;1815;-47
2022/09/25 04:58:45;;;;;;;;;;;;;;;;;;5175988;27;2240;-47
2022/09/25 05:01:19;;;;;;;;;;;;;;;;;;5175927;27;1719;-49
2022/09/25 05:03:55;;;;;;;;;;;;;;;;;;5175984;27;1646;-49
2022/09/25 05:06:43;;;;;;;;;;;;;;;;;;5175437;27;2094;-42
2022/09/25 05:09:14;;;;;;;;;;;;;;;;;;5175665;27;1637;-44
2022/09/25 05:11:51;;;;;;;;;;;;;;;;;;5175762;27;1964;-46
2022/09/25 05:14:21;;;;;;;;;;;;;;;;;;5175933;27;1466;-48
2022/09/25 05:16:52;;;;;;;;;;;;;;;;;;5175869;27;1981;-45
2022/09/25 05:19:23;;;;;;;;;;;;;;;;;;5175998;27;1872;-47
2022/09/25 05:21:54;;;;;;;;;;;;;;;;;;5176027;27;2214;-46
2022/09/25 05:24:21;;;;;;;;;;;;;;;;;;5175803;27;1819;-48
2022/09/25 05:26:48;;;;;;;;;;;;;;;;;;5157110;27;1988;-44
2022/09/25 05:29:23;;;;;;;;;;;;;;;;;;5175659;27;1826;-49
2022/09/25 05:32:06;;;;;;;;;;;;;;;;;;5175167;27;1906;-45
2022/09/25 05:34:43;;;;;;;;;;;;;;;;;;5176198;27;1979;-47
2022/09/25 05:37:16;;;;;;;;;;;;;;;;;;5179884;27;1413;-48
2022/09/25 05:39:44;;;;;;;;;;;;;;;;;;5179490;27;1874;-50
2022/09/25 05:42:11;;;;;;;;;;;;;;;;;;5179537;27;1706;-46
2022/09/25 05:44:41;;;;;;;;;;;;;;;;;;5179684;27;1641;-50
2022/09/25 05:47:08;;;;;;;;;;;;;;;;;;5179627;27;1516;-49
2022/09/25 05:49:35;;;;;;;;;;;;;;;;;;5179378;27;2182;-47
2022/09/25 05:52:02;;;;;;;;;;;;;;;;;;5179218;27;1905;-45
2022/09/25 05:54:29;;;;;;;;;;;;;;;;;;5179125;27;1936;-43
2022/09/25 05:56:57;;;;;;;;;;;;;;;;;;5179310;27;1946;-42
2022/09/25 05:59:24;;;;;;;;;;;;;;;;;;5179423;27;1926;-43
2022/09/25 06:01:52;;;;;;;;;;;;;;;;;;5179628;27;1835;-46
2022/09/25 06:04:19;;;;;;;;;;;;;;;;;;5179207;27;2102;-48
2022/09/25 06:06:47;;;;;;;;;;;;;;;;;;5179100;27;1698;-46
2022/09/25 06:09:14;;;;;;;;;;;;;;;;;;5160343;27;1978;-46
2022/09/25 06:11:46;;;;;;;;;;;;;;;;;;5179112;27;1736;-47
2022/09/25 06:14:13;;;;;;;;;;;;;;;;;;5178649;27;2207;-47
2022/09/25 06:16:40;;;;;;;;;;;;;;;;;;5178820;27;1866;-44
2022/09/25 06:19:07;;;;;;;;;;;;;;;;;;5178862;27;1678;-43
2022/09/25 06:21:34;;;;;;;;;;;;;;;;;;5178988;27;2036;-47
2022/09/25 06:24:02;;;;;;;;;;;;;;;;;;5178710;27;1798;-51
2022/09/25 06:26:32;;;;;;;;;;;;;;;;;;5178496;27;2234;-42
2022/09/25 06:28:59;;;;;;;;;;;;;;;;;;5178699;27;2131;-40
2022/09/25 06:31:29;;;;;;;;;;;;;;;;;;5159834;27;2318;-42
2022/09/25 06:33:56;;;;;;;;;;;;;;;;;;5178853;27;1966;-42
2022/09/25 06:36:23;;;;;;;;;;;;;;;;;;5176506;27;2046;-41
2022/09/25 06:38:54;;;;;;;;;;;;;;;;;;5178659;27;1957;-42
2022/09/25 06:41:21;;;;;;;;;;;;;;;;;;5178287;27;1849;-41
2022/09/25 06:43:49;;;;;;;;;;;;;;;;;;5178327;27;1933;-40
2022/09/25 06:46:17;;;;;;;;;;;;;;;;;;5177700;27;1816;-50
2022/09/25 06:48:49;;;;;;;;;;;;;;;;;;5177971;27;1547;-41
2022/09/25 06:51:17;;;;;;;;;;;;;;;;;;5178223;27;1853;-42
2022/09/25 06:53:44;;;;;;;;;;;;;;;;;;5178068;27;1932;-44
2022/09/25 06:56:11;;;;;;;;;;;;;;;;;;5177984;27;1874;-43
2022/09/25 06:58:38;;;;;;;;;;;;;;;;;;5178076;27;1503;-47
2022/09/25 07:01:09;;;;;;;;;;;;;;;;;;5159541;27;1927;-52
2022/09/25 07:03:47;;;;;;;;;;;;;;;;;;5176135;27;1975;-42
2022/09/25 07:06:16;;;;;;;;;;;;;;;;;;5178024;27;2024;-41
2022/09/25 07:08:44;;;;;;;;;;;;;;;;;;5177785;27;2091;-43
2022/09/25 07:11:14;;;;;;;;;;;;;;;;;;5177613;27;2153;-42
2022/09/25 07:13:41;;;;;;;;;;;;;;;;;;5177191;27;1964;-41
2022/09/25 07:16:13;;;;;;;;;;;;;;;;;;5177763;27;2172;-46
2022/09/25 07:18:40;;;;;;;;;;;;;;;;;;5177541;27;1626;-51
2022/09/25 07:21:12;;;;;;;;;;;;;;;;;;5177435;27;2242;-42
2022/09/25 07:23:40;;;;;;;;;;;;;;;;;;5177466;27;2238;-42
2022/09/25 07:26:10;;;;;;;;;;;;;;;;;;5177365;27;2124;-41
2022/09/25 07:28:39;;;;;;;;;;;;;;;;;;5177123;27;1927;-42
2022/09/25 07:31:25;;;;;;;;;;;;;;;;;;5177333;27;1811;-41
2022/09/25 07:33:53;;;;;;;;;;;;;;;;;;5177486;27;2118;-42
2022/09/25 07:36:20;;;;;;;;;;;;;;;;;;5177076;27;1828;-43
2022/09/25 07:38:49;;;;;;;;;;;;;;;;;;5161963;27;1951;-44
2022/09/25 07:41:17;;;;;;;;;;;;;;;;;;5156006;27;1878;-41
2022/09/25 07:43:44;;;;;;;;;;;;;;;;;;5156151;27;1831;-42
2022/09/25 07:46:11;;;;;;;;;;;;;;;;;;5156259;27;2193;-46
2022/09/25 07:48:39;;;;;;;;;;;;;;;;;;5156058;27;1899;-41
2022/09/25 07:51:07;;;;;;;;;;;;;;;;;;5170439;27;2037;-42
2022/09/25 07:53:35;;;;;;;;;;;;;;;;;;5176369;27;1970;-41
2022/09/25 07:56:02;;;;;;;;;;;;;;;;;;5176740;27;1831;-45
2022/09/25 07:58:33;;;;;;;;;;;;;;;;;;5174512;27;1960;-42
2022/09/25 08:01:02;;;;;;;;;;;;;;;;;;5176392;27;1209;-41
2022/09/25 08:03:30;;;;;;;;;;;;;;;;;;5176504;27;2164;-42
2022/09/25 08:05:58;;;;;;;;;;;;;;;;;;5175787;27;1485;-44
2022/09/25 08:08:26;;;;;;;;;;;;;;;;;;5176735;27;1672;-53
2022/09/25 08:10:54;;;;;;;;;;;;;;;;;;5176533;27;2081;-42
2022/09/25 08:13:21;;;;;;;;;;;;;;;;;;5176263;27;1962;-46
2022/09/25 08:15:49;;;;;;;;;;;;;;;;;;5176313;27;1779;-48
2022/09/25 08:18:16;;;;;;;;;;;;;;;;;;5176477;27;2176;-42
2022/09/25 08:20:43;;;;;;;;;;;;;;;;;;5176390;27;1703;-42
2022/09/25 08:23:10;;;;;;;;;;;;;;;;;;5176182;27;2157;-43
2022/09/25 08:25:37;;;;;;;;;;;;;;;;;;5176256;27;1945;-44
2022/09/25 08:28:05;;;;;;;;;;;;;;;;;;5176075;27;1603;-43
2022/09/25 08:30:32;;;;;;;;;;;;;;;;;;5175979;27;1816;-42
2022/09/25 08:32:59;;;;;;;;;;;;;;;;;;5175955;27;1906;-43
2022/09/25 08:35:26;;;;;;;;;;;;;;;;;;5176052;27;1758;-48
2022/09/25 08:37:56;;;;;;;;;;;;;;;;;;5157583;27;1985;-42
2022/09/25 08:40:29;;;;;;;;;;;;;;;;;;5176074;27;1578;-45
2022/09/25 08:42:57;;;;;;;;;;;;;;;;;;5175822;27;2337;-45
2022/09/25 08:51:18;;;;;;;;;;;;;;;;;;5157157;27;1760;-42
2022/09/25 08:53:45;;;;;;;;;;;;;;;;;;5154813;27;1977;-43
2022/09/25 08:56:18;;;;;;;;;;;;;;;;;;5136539;27;2016;-42
2022/09/25 08:58:51;;;;;;;;;;;;;;;;;;5154716;27;2017;-48
2022/09/25 09:01:20;;;;;;;;;;;;;;;;;;5154602;27;1943;-42
2022/09/25 09:03:47;;;;;;;;;;;;;;;;;;5154800;27;2039;-42
2022/09/25 09:06:15;;;;;;;;;;;;;;;;;;5154608;27;2060;-42
2022/09/25 09:08:46;;;;;;;;;;;;;;;;;;5154512;27;1885;-45
2022/09/25 09:11:17;;;;;;;;;;;;;;;;;;5158542;27;1612;-45
2022/09/25 09:14:05;;;;;;;;;;;;;;;;;;5158885;27;2297;-42
2022/09/25 09:16:51;;;;;;;;;;;;;;;;;;5158593;27;1900;-42
2022/09/25 09:19:18;;;;;;;;;;;;;;;;;;5158786;27;1620;-43
2022/09/25 09:22:05;;;;;;;;;;;;;;;;;;5158980;27;1789;-43
2022/09/25 09:24:40;;;;;;;;;;;;;;;;;;5142668;27;1733;-41
2022/09/25 09:27:17;;;;;;;;;;;;;;;;;;5166686;27;2190;-43
2022/09/25 09:29:57;;;;;;;;;;;;;;;;;;5179331;27;1925;-45
2022/09/25 09:32:36;;;;;;;;;;;;;;;;;;5179618;27;1915;-43
2022/09/25 09:35:21;;;;;;;;;;;;;;;;;;5179616;27;2035;-42
2022/09/25 09:37:49;;;;;;;;;;;;;;;;;;5179351;27;1788;-48
2022/09/25 09:40:28;;;;;;;;;;;;;;;;;;5179511;27;1959;-42
2022/09/25 09:42:59;;;;;;;;;;;;;;;;;;5174514;27;1859;-43
2022/09/25 09:46:04;;;;;;;;;;;;;;;;;;5158632;27;2095;-44
2022/09/25 09:48:35;;;;;;;;;;;;;;;;;;5054413;28;1875;-43
2022/09/25 09:51:07;;;;;;;;;;;;;;;;;;5054185;28;1982;-41
2022/09/25 09:53:40;;;;;;;;;;;;;;;;;;5110564;27;2531;-44
2022/09/25 09:56:26;;;;;;;;;;;;;;;;;;5158373;27;1686;-42
2022/09/25 09:59:03;;;;;;;;;;;;;;;;;;5158368;27;2161;-42
2022/09/25 10:01:35;;;;;;;;;;;;;;;;;;5158231;27;1754;-42
2022/09/25 10:04:11;;;;;;;;;;;;;;;;;;5158205;27;2118;-43
2022/09/25 10:07:02;;;;;;;;;;;;;;;;;;5157879;27;1944;-42
2022/09/25 10:09:29;;;;;;;;;;;;;;;;;;5145476;27;1987;-51
2022/09/25 10:12:06;;;;;;;;;;;;;;;;;;5157957;27;2175;-44
2022/09/25 10:14:38;;;;;;;;;;;;;;;;;;5157856;27;2042;-42
2022/09/25 10:17:06;;;;;;;;;;;;;;;;;;5157703;27;2255;-43
2022/09/25 10:19:52;;;;;;;;;;;;;;;;;;5157877;27;1869;-51
2022/09/25 10:22:22;;;;;;;;;;;;;;;;;;5156630;27;1670;-41
2022/09/25 10:24:52;;;;;;;;;;;;;;;;;;5157934;27;1256;-42
2022/09/25 10:27:19;;;;;;;;;;;;;;;;;;5166984;27;1864;-41
2022/09/25 10:29:59;;;;;;;;;;;;;;;;;;5159450;27;1790;-42
2022/09/25 10:32:26;;;;;;;;;;;;;;;;;;5159799;27;2043;-42
2022/09/25 10:34:53;;;;;;;;;;;;;;;;;;5178475;27;1906;-42
2022/09/25 10:37:21;;;;;;;;;;;;;;;;;;5174593;27;1893;-42
2022/09/25 10:40:03;;;;;;;;;;;;;;;;;;5157242;27;1917;-43
2022/09/25 10:42:38;;;;;;;;;;;;;;;;;;5157506;27;1810;-42
2022/09/25 10:45:25;;;;;;;;;;;;;;;;;;5157212;27;2137;-41
2022/09/25 10:50:38;;;;;;;;;;;;;;;;;;5198631;27;2387;-42
2022/09/25 10:53:25;;;;;;;;;;;;;;;;;;5198754;27;2118;-42
2022/09/25 10:55:57;;;;;;;;;;;;;;;;;;5199034;27;1775;-41
2022/09/25 10:58:35;;;;;;;;;;;;;;;;;;5199202;27;2125;-47
2022/09/25 11:01:03;;;;;;;;;;;;;;;;;;5156913;27;1523;-41
2022/09/25 11:03:33;;;;;;;;;;;;;;;;;;5156713;27;1959;-42
2022/09/25 11:06:03;;;;;;;;;;;;;;;;;;5156920;27;1565;-41
2022/09/25 11:08:37;;;;;;;;;;;;;;;;;;5161654;27;1562;-42
2022/09/25 11:11:08;;;;;;;;;;;;;;;;;;5178359;27;1459;-50
2022/09/25 11:13:57;;;;;;;;;;;;;;;;;;5177312;27;1917;-46
2022/09/25 11:16:40;;;;;;;;;;;;;;;;;;5177984;27;1624;-42
2022/09/25 11:19:14;;;;;;;;;;;;;;;;;;5177779;27;2450;-45
2022/09/25 11:21:44;;;;;;;;;;;;;;;;;;5177655;27;1671;-42
2022/09/25 11:24:14;;;;;;;;;;;;;;;;;;5177639;27;1938;-44
2022/09/25 11:27:00;;;;;;;;;;;;;;;;;;5177442;27;2000;-42
2022/09/25 11:29:37;;;;;;;;;;;;;;;;;;5177641;27;2010;-42
2022/09/25 11:32:30;;;;;;;;;;;;;;;;;;5176827;27;1754;-42
2022/09/25 11:35:13;;;;;;;;;;;;;;;;;;5177298;27;2236;-48
2022/09/25 11:37:59;;;;;;;;;;;;;;;;;;5177294;27;1698;-42
2022/09/25 11:43:24;;;;;;;;;;;;;;;;;;5177374;27;1955;-42
2022/09/25 11:45:56;;;;;;;;;;;;;;;;;;5177072;27;1996;-42
2022/09/25 11:48:23;;;;;;;;;;;;;;;;;;5177125;27;1806;-42
2022/09/25 11:50:50;;;;;;;;;;;;;;;;;;5176702;27;2004;-41
2022/09/25 11:53:26;;;;;;;;;;;;;;;;;;5176989;27;1883;-47
2022/09/25 11:56:02;;;;;;;;;;;;;;;;;;5176915;27;1969;-42
2022/09/25 11:58:45;;;;;;;;;;;;;;;;;;5176734;27;1733;-41
2022/09/25 12:01:19;;;;;;;;;;;;;;;;;;5176974;27;2216;-43
2022/09/25 12:03:56;;;;;;;;;;;;;;;;;;5176723;27;2138;-42
2022/09/25 12:06:44;;;;;;;;;;;;;;;;;;5177153;27;1802;-43
2022/09/25 12:09:29;;;;;;;;;;;;;;;;;;5176410;27;2247;-48
2022/09/25 12:12:07;;;;;;;;;;;;;;;;;;5176378;27;1901;-51
2022/09/25 12:14:53;;;;;;;;;;;;;;;;;;5176513;27;1974;-50
2022/09/25 12:17:38;;;;;;;;;;;;;;;;;;5176623;27;1755;-49
2022/09/25 12:20:11;;;;;;;;;;;;;;;;;;5176399;27;1612;-48
2022/09/25 12:23:02;;;;;;;;;;;;;;;;;;5175820;27;2184;-50
2022/09/25 12:25:39;;;;;;;;;;;;;;;;;;5128581;27;1845;-47
2022/09/25 12:28:23;;;;;;;;;;;;;;;;;;5176289;27;1971;-52
2022/09/25 12:31:06;;;;;;;;;;;;;;;;;;5176062;27;2098;-45
2022/09/25 12:33:33;;;;;;;;;;;;;;;;;;5173795;27;2032;-49
2022/09/25 12:36:09;;;;;;;;;;;;;;;;;;5176018;27;1902;-43
2022/09/25 12:38:40;;;;;;;;;;;;;;;;;;5175774;27;1925;-42
2022/09/25 12:41:27;;;;;;;;;;;;;;;;;;5175458;27;1925;-42
2022/09/25 12:44:18;;;;;;;;;;;;;;;;;;5175891;27;1604;-49
2022/09/25 12:46:56;;;;;;;;;;;;;;;;;;5175886;27;1764;-50
2022/09/25 12:49:39;;;;;;;;;;;;;;;;;;5175614;27;2125;-48
2022/09/25 12:52:13;;;;;;;;;;;;;;;;;;5175157;27;2026;-47
2022/09/25 12:54:47;;;;;;;;;;;;;;;;;;5175786;27;1953;-50
2022/09/25 12:57:17;;;;;;;;;;;;;;;;;;5157194;27;2055;-42
2022/09/25 12:59:47;;;;;;;;;;;;;;;;;;5175405;27;1286;-45
2022/09/25 13:02:18;;;;;;;;;;;;;;;;;;5175408;27;2054;-50
2022/09/25 13:04:54;;;;;;;;;;;;;;;;;;5175739;27;1974;-49
2022/09/25 13:07:39;;;;;;;;;;;;;;;;;;5175881;27;1947;-47
2022/09/25 13:10:18;;;;;;;;;;;;;;;;;;5175367;27;1790;-47
2022/09/25 13:12:47;;;;;;;;;;;;;;;;;;5175346;27;1947;-47
2022/09/25 13:15:17;;;;;;;;;;;;;;;;;;5175590;27;2157;-46
2022/09/25 13:17:48;;;;;;;;;;;;;;;;;;5175276;27;1827;-52
2022/09/25 13:20:25;;;;;;;;;;;;;;;;;;5175484;27;2229;-50
2022/09/25 13:22:57;;;;;;;;;;;;;;;;;;5175298;27;1850;-50
2022/09/25 13:25:25;;;;;;;;;;;;;;;;;;5175694;27;1411;-51
2022/09/25 13:27:53;;;;;;;;;;;;;;;;;;5175225;27;1718;-50
2022/09/25 13:30:24;;;;;;;;;;;;;;;;;;5175554;27;2082;-45
2022/09/25 13:32:52;;;;;;;;;;;;;;;;;;5165946;27;1902;-48
2022/09/25 13:35:20;;;;;;;;;;;;;;;;;;5135833;27;1981;-45
2022/09/25 13:37:49;;;;;;;;;;;;;;;;;;5154584;27;1890;-50
2022/09/25 13:40:42;;;;;;;;;;;;;;;;;;5154176;27;1971;-45
2022/09/25 13:43:20;;;;;;;;;;;;;;;;;;5154564;27;2079;-49
2022/09/25 13:45:49;;;;;;;;;;;;;;;;;;5154384;27;2165;-47
2022/09/25 13:48:35;;;;;;;;;;;;;;;;;;5154495;27;1986;-51
2022/09/25 13:51:18;;;;;;;;;;;;;;;;;;5154432;27;1980;-42
2022/09/25 13:53:58;;;;;;;;;;;;;;;;;;5154091;27;1914;-50
2022/09/25 13:56:26;;;;;;;;;;;;;;;;;;5156331;27;1881;-42
2022/09/25 13:59:01;;;;;;;;;;;;;;;;;;5158487;27;2384;-48
2022/09/25 14:01:32;;;;;;;;;;;;;;;;;;5158479;27;1878;-49
2022/09/25 14:03:59;;;;;;;;;;;;;;;;;;5157897;27;2247;-48
2022/09/25 14:06:31;;;;;;;;;;;;;;;;;;5157814;27;1562;-42
2022/09/25 14:09:09;;;;;;;;;;;;;;;;;;5158002;27;2146;-47
2022/09/25 14:11:37;;;;;;;;;;;;;;;;;;5157987;27;2110;-47
2022/09/25 14:14:06;;;;;;;;;;;;;;;;;;5157522;27;1961;-48
2022/09/25 14:16:38;;;;;;;;;;;;;;;;;;5157756;27;1981;-41
2022/09/25 14:19:07;;;;;;;;;;;;;;;;;;5157515;27;1786;-46
2022/09/25 14:21:34;;;;;;;;;;;;;;;;;;5157571;27;2206;-41
2022/09/25 14:24:17;;;;;;;;;;;;;;;;;;5157631;27;1419;-47
2022/09/25 14:26:45;;;;;;;;;;;;;;;;;;5161780;27;2105;-51
2022/09/25 14:29:23;;;;;;;;;;;;;;;;;;5178641;27;1609;-48
2022/09/25 14:31:58;;;;;;;;;;;;;;;;;;5178453;27;2041;-49
2022/09/25 14:34:38;;;;;;;;;;;;;;;;;;5178345;27;1980;-45
2022/09/25 14:37:24;;;;;;;;;;;;;;;;;;5178153;27;2218;-46
2022/09/25 14:40:02;;;;;;;;;;;;;;;;;;5178097;27;2133;-45
2022/09/25 14:42:50;;;;;;;;;;;;;;;;;;5178338;27;1243;-46
2022/09/25 14:45:36;;;;;;;;;;;;;;;;;;5178181;27;1893;-48
2022/09/25 14:48:13;;;;;;;;;;;;;;;;;;5177841;27;1922;-42
2022/09/25 14:50:45;;;;;;;;;;;;;;;;;;5178256;27;1402;-40
2022/09/25 14:53:17;;;;;;;;;;;;;;;;;;5178058;27;1661;-42
2022/09/25 14:55:47;;;;;;;;;;;;;;;;;;5178008;27;1897;-43
2022/09/25 14:58:17;;;;;;;;;;;;;;;;;;5177451;27;1795;-42
2022/09/25 15:00:51;;;;;;;;;;;;;;;;;;5177795;27;2007;-45
2022/09/25 15:03:21;;;;;;;;;;;;;;;;;;5177841;27;1960;-46
2022/09/25 15:05:49;;;;;;;;;;;;;;;;;;5159038;27;1684;-42
2022/09/25 15:08:21;;;;;;;;;;;;;;;;;;5177105;27;1854;-48
2022/09/25 15:10:59;;;;;;;;;;;;;;;;;;5177728;27;1753;-50
2022/09/25 15:13:32;;;;;;;;;;;;;;;;;;5177789;27;2045;-47
2022/09/25 15:18:53;;;;;;;;;;;;;;;;;;5177448;27;1677;-49
2022/09/25 15:21:25;;;;;;;;;;;;;;;;;;5176731;27;2018;-51
2022/09/25 15:23:54;;;;;;;;;;;;;;;;;;5177502;27;1806;-49
2022/09/25 15:26:21;;;;;;;;;;;;;;;;;;5177314;27;1482;-40
2022/09/25 15:28:50;;;;;;;;;;;;;;;;;;5177280;27;1961;-51
2022/09/25 15:31:18;;;;;;;;;;;;;;;;;;5177529;27;1425;-43
2022/09/25 15:34:01;;;;;;;;;;;;;;;;;;5177148;27;2004;-47
2022/09/25 15:36:28;;;;;;;;;;;;;;;;;;5177261;27;1984;-42
2022/09/25 15:38:57;;;;;;;;;;;;;;;;;;5177447;27;2135;-49
2022/09/25 15:41:24;;;;;;;;;;;;;;;;;;5176685;27;2018;-41
2022/09/25 15:44:04;;;;;;;;;;;;;;;;;;5176707;27;2217;-42
2022/09/25 15:46:36;;;;;;;;;;;;;;;;;;5176636;27;1602;-42
2022/09/25 15:49:03;;;;;;;;;;;;;;;;;;5176944;27;1863;-49
2022/09/25 15:51:32;;;;;;;;;;;;;;;;;;5177009;27;1771;-41
2022/09/25 15:54:18;;;;;;;;;;;;;;;;;;5176565;27;1833;-44
2022/09/25 15:56:49;;;;;;;;;;;;;;;;;;5176453;27;1959;-42
2022/09/25 15:59:19;;;;;;;;;;;;;;;;;;5176896;27;2291;-50
2022/09/25 16:04:44;;;;;;;;;;;;;;;;;;5176286;27;1884;-50
2022/09/25 16:07:34;;;;;;;;;;;;;;;;;;5176324;27;1715;-50
2022/09/25 16:10:10;;;;;;;;;;;;;;;;;;5176581;27;1799;-44
2022/09/25 16:12:44;;;;;;;;;;;;;;;;;;5176467;27;1877;-44
2022/09/25 16:15:28;;;;;;;;;;;;;;;;;;5175283;27;2254;-51
2022/09/25 16:17:57;;;;;;;;;;;;;;;;;;5152808;27;2021;-49
2022/09/25 16:20:31;;;;;;;;;;;;;;;;;;5153294;27;2141;-49
2022/09/25 16:23:03;;;;;;;;;;;;;;;;;;5155054;27;1462;-52
2022/09/25 16:25:36;;;;;;;;;;;;;;;;;;5154743;27;2292;-49
2022/09/25 16:28:10;;;;;;;;;;;;;;;;;;5170364;27;2244;-51
2022/09/25 16:30:46;;;;;;;;;;;;;;;;;;5175333;27;1889;-53
2022/09/25 16:33:30;;;;;;;;;;;;;;;;;;5175188;27;1223;-51
2022/09/25 16:36:00;;;;;;;;;;;;;;;;;;5175148;27;1980;-51
2022/09/25 16:39:02;;;;;;;;;;;;;;;;;;5175461;27;2103;-52
2022/09/25 16:41:29;;;;;;;;;;;;;;;;;;5175796;27;1809;-43
2022/09/25 16:44:15;;;;;;;;;;;;;;;;;;5175881;27;2160;-49
2022/09/25 16:46:44;;;;;;;;;;;;;;;;;;5175727;27;1815;-49
2022/09/25 16:49:11;;;;;;;;;;;;;;;;;;5175813;27;1956;-42
2022/09/25 16:51:47;;;;;;;;;;;;;;;;;;5175920;27;1880;-42
2022/09/25 16:54:16;;;;;;;;;;;;;;;;;;5175870;27;1400;-42
2022/09/25 16:56:44;;;;;;;;;;;;;;;;;;5175590;27;2266;-45
2022/09/25 17:02:52;;;;;;;;;;;;;;;;;;5175865;27;1867;-41
2022/09/25 17:05:22;;;;;;;;;;;;;;;;;;5157085;27;1433;-49
2022/09/25 17:07:50;;;;;;;;;;;;;;;;;;5175704;27;1809;-51
2022/09/25 17:10:22;;;;;;;;;;;;;;;;;;5174905;27;1511;-53
2022/09/25 17:12:52;;;;;;;;;;;;;;;;;;5175505;27;1803;-43
2022/09/25 17:15:25;;;;;;;;;;;;;;;;;;5175510;27;1936;-49
2022/09/25 17:17:53;;;;;;;;;;;;;;;;;;5175830;27;2084;-48
2022/09/25 17:20:25;;;;;;;;;;;;;;;;;;5175657;27;1815;-49
2022/09/25 17:22:53;;;;;;;;;;;;;;;;;;5175668;27;1884;-50
2022/09/25 17:25:35;;;;;;;;;;;;;;;;;;5175312;27;1637;-50
2022/09/25 17:28:04;;;;;;;;;;;;;;;;;;5175467;27;1537;-51
2022/09/25 17:30:31;;;;;;;;;;;;;;;;;;5175921;27;1601;-50
2022/09/25 17:33:04;;;;;;;;;;;;;;;;;;5179630;27;1710;-53
2022/09/25 17:35:36;;;;;;;;;;;;;;;;;;5178228;27;1898;-46
2022/09/25 17:38:05;;;;;;;;;;;;;;;;;;5179735;27;1752;-52
2022/09/25 17:40:33;;;;;;;;;;;;;;;;;;5179689;27;1849;-50
2022/09/25 17:43:01;;;;;;;;;;;;;;;;;;5179559;27;1467;-52
2022/09/25 17:45:29;;;;;;;;;;;;;;;;;;5179729;27;1906;-51
2022/09/25 17:47:57;;;;;;;;;;;;;;;;;;5179563;27;1847;-51
2022/09/25 17:50:25;;;;;;;;;;;;;;;;;;5179419;27;2116;-52
2022/09/25 17:52:53;;;;;;;;;;;;;;;;;;5179618;27;1814;-50
2022/09/25 17:55:21;;;;;;;;;;;;;;;;;;5160342;27;1905;-52
2022/09/25 17:57:49;;;;;;;;;;;;;;;;;;5178894;27;1437;-51
2022/09/25 18:00:16;;;;;;;;;;;;;;;;;;5179304;27;1920;-52
2022/09/25 18:02:46;;;;;;;;;;;;;;;;;;5179090;27;1991;-52
2022/09/25 18:05:15;;;;;;;;;;;;;;;;;;5179187;27;1914;-53
2022/09/25 18:07:43;;;;;;;;;;;;;;;;;;5179052;27;1764;-51